Time;durP1;ratioP1;P1;durP2;ratioP2;P2;SDS_P1;SDS_P2;PMS_P1;PMS_P2;Temp;Humidity;BMP_temperature;BMP_pressure;BME280_temperature;BME280_humidity;BME280_pressure;Samples;Min_cycle;Max_cycle;Signal;HPM_P1;HPM_P2
2021/09/13 00:00:38;;;;;;;12.57;6.67;;;;;;;11.46;97.58;101763.69;2099331;28;20035;-64
2021/09/13 00:01:38;;;;;;;10.60;6.00;;;;;;;11.46;98.07;101761.09;2099320;28;20016;-64
2021/09/13 00:02:38;;;;;;;10.97;6.53;;;;;;;11.44;97.91;101763.78;2090390;28;20036;-64
2021/09/13 00:03:38;;;;;;;9.57;6.90;;;;;;;11.42;97.69;101762.94;2090377;28;20490;-65
2021/09/13 00:04:39;;;;;;;10.97;7.90;;;;;;;11.42;97.95;101759.47;2099257;28;20021;-66
2021/09/13 00:05:39;;;;;;;11.43;7.03;;;;;;;11.39;98.22;101764.81;2099285;28;20024;-65
2021/09/13 00:06:39;;;;;;;10.77;5.93;;;;;;;11.36;98.08;101762.28;2090347;28;20115;-64
2021/09/13 00:07:39;;;;;;;11.23;6.40;;;;;;;11.35;98.08;101763.19;2090470;28;20689;-65
2021/09/13 00:08:40;;;;;;;9.53;5.50;;;;;;;11.37;98.18;101761.38;2099246;28;20035;-65
2021/09/13 00:09:40;;;;;;;8.70;6.17;;;;;;;11.35;97.76;101758.81;2090389;28;20024;-64
2021/09/13 00:10:43;;;;;;;11.30;9.20;;;;;;;11.33;97.87;101756.25;2090218;28;20497;-65
2021/09/13 00:11:43;;;;;;;9.93;6.72;;;;;;;11.32;98.05;101758.91;2099178;28;20374;-65
2021/09/13 00:12:43;;;;;;;10.30;5.97;;;;;;;11.30;98.28;101760.72;2099252;28;20019;-65
2021/09/13 00:13:44;;;;;;;11.10;7.40;;;;;;;11.26;97.91;101754.72;2090195;28;20020;-66
2021/09/13 00:14:44;;;;;;;9.05;6.97;;;;;;;11.24;98.03;101759.16;2081981;28;20022;-65
2021/09/13 00:15:45;;;;;;;13.75;8.15;;;;;;;11.24;97.79;101751.31;2090235;28;20021;-65
2021/09/13 00:16:46;;;;;;;10.53;7.00;;;;;;;11.22;98.64;101760.94;2099153;28;20083;-64
2021/09/13 00:17:46;;;;;;;10.60;6.57;;;;;;;11.22;98.33;101750.50;2099235;28;20766;-65
2021/09/13 00:18:46;;;;;;;11.63;6.00;;;;;;;11.21;98.23;101756.63;2090145;28;20032;-65
2021/09/13 00:19:46;;;;;;;8.80;6.23;;;;;;;11.22;98.11;101755.72;2090084;28;20049;-65
2021/09/13 00:20:47;;;;;;;15.07;7.80;;;;;;;11.19;98.27;101753.22;2099073;28;20594;-65
2021/09/13 00:21:47;;;;;;;14.30;8.00;;;;;;;11.18;98.42;101754.09;2090108;28;20112;-65
2021/09/13 00:22:47;;;;;;;9.00;7.73;;;;;;;11.16;98.71;101754.16;2090164;28;20037;-65
2021/09/13 00:23:47;;;;;;;13.50;9.43;;;;;;;11.15;98.04;101755.06;2090261;28;20078;-65
2021/09/13 00:24:48;;;;;;;10.80;8.27;;;;;;;11.13;98.70;101746.44;2090357;28;20055;-66
2021/09/13 00:25:48;;;;;;;16.90;9.43;;;;;;;11.13;98.27;101753.41;2099034;28;20032;-66
2021/09/13 00:26:48;;;;;;;10.60;9.20;;;;;;;11.13;98.54;101749.03;2099223;28;20470;-65
2021/09/13 00:27:48;;;;;;;11.60;8.10;;;;;;;11.12;98.62;101746.47;2099009;28;20500;-65
2021/09/13 00:28:49;;;;;;;13.43;6.83;;;;;;;11.07;98.33;101744.84;2099053;28;20032;-65
2021/09/13 00:29:49;;;;;;;10.17;6.43;;;;;;;11.06;98.40;101743.13;2099003;28;20029;-65
2021/09/13 00:30:49;;;;;;;9.70;6.17;;;;;;;11.05;98.98;101741.41;2099151;28;20028;-64
2021/09/13 00:31:49;;;;;;;13.87;9.07;;;;;;;11.03;98.80;101745.84;2099025;28;20040;-64
2021/09/13 00:32:50;;;;;;;13.53;8.50;;;;;;;11.01;98.53;101739.78;2099086;28;20079;-65
2021/09/13 00:33:50;;;;;;;12.50;9.03;;;;;;;11.01;98.88;101733.69;2098955;28;20032;-65
2021/09/13 00:34:50;;;;;;;12.33;7.43;;;;;;;11.00;98.48;101737.22;2099058;28;20529;-66
2021/09/13 00:35:50;;;;;;;8.70;5.33;;;;;;;10.99;98.87;101741.63;2099210;28;20366;-65
2021/09/13 00:36:51;;;;;;;10.13;7.07;;;;;;;10.97;99.14;101743.41;2090123;28;20116;-66
2021/09/13 00:37:51;;;;;;;12.47;6.73;;;;;;;10.97;98.98;101742.53;2090104;28;20269;-65
2021/09/13 00:38:54;;;;;;;11.20;7.20;;;;;;;10.98;99.25;101742.50;2098820;28;20077;-65
2021/09/13 00:39:54;;;;;;;13.25;8.40;;;;;;;10.95;98.68;101740.00;2098936;28;20021;-66
2021/09/13 00:40:54;;;;;;;10.90;7.30;;;;;;;10.94;98.69;101743.50;2098962;28;20028;-65
2021/09/13 00:41:54;;;;;;;9.00;6.63;;;;;;;10.92;98.84;101740.09;2090100;28;20025;-66
2021/09/13 00:42:55;;;;;;;13.00;6.20;;;;;;;10.91;99.25;101739.22;2090155;28;20060;-65
2021/09/13 00:43:58;;;;;;;13.57;8.00;;;;;;;10.89;98.76;101735.81;2098920;28;20031;-65
2021/09/13 00:44:58;;;;;;;12.05;7.93;;;;;;;10.88;98.83;101738.47;2098348;28;20501;-66
2021/09/13 00:45:59;;;;;;;8.85;6.53;;;;;;;10.87;98.92;101741.94;2099074;28;20033;-65
2021/09/13 00:46:59;;;;;;;11.47;6.50;;;;;;;10.84;98.93;101736.84;2098975;28;20021;-66
2021/09/13 00:47:59;;;;;;;9.67;6.33;;;;;;;10.81;98.87;101740.38;2099096;28;20033;-65
2021/09/13 00:49:00;;;;;;;10.37;6.57;;;;;;;10.80;98.96;101744.75;2099168;28;20059;-64
2021/09/13 00:50:00;;;;;;;9.80;6.60;;;;;;;10.79;98.83;101734.34;2098922;28;20024;-66
2021/09/13 00:51:01;;;;;;;10.60;6.60;;;;;;;10.78;98.65;101737.88;2090129;28;20025;-65
2021/09/13 00:52:01;;;;;;;9.80;7.03;;;;;;;10.75;98.75;101730.13;2090304;28;20036;-64
2021/09/13 00:53:02;;;;;;;10.73;6.47;;;;;;;10.74;99.01;101737.09;2098992;28;20055;-65
2021/09/13 00:54:03;;;;;;;10.53;7.77;;;;;;;10.73;98.96;101730.16;2099001;28;20290;-65
2021/09/13 00:55:05;;;;;;;12.48;8.38;;;;;;;10.76;98.86;101737.91;2098901;28;20031;-65
2021/09/13 00:56:06;;;;;;;11.50;7.07;;;;;;;10.72;98.96;101733.69;2098938;28;20044;-66
2021/09/13 00:57:07;;;;;;;9.85;6.43;;;;;;;10.71;98.77;101737.16;2098898;28;20016;-65
2021/09/13 00:58:08;;;;;;;12.18;6.20;;;;;;;10.69;99.12;101739.00;2090036;28;20052;-65
2021/09/13 00:59:09;;;;;;;11.80;6.05;;;;;;;10.66;99.28;101739.94;2089910;28;20110;-65
2021/09/13 01:00:10;;;;;;;10.57;6.00;;;;;;;10.65;98.43;101739.97;2090159;28;20064;-65
2021/09/13 01:01:10;;;;;;;10.55;6.05;;;;;;;10.63;98.83;101737.41;2099049;28;20031;-65
2021/09/13 01:02:10;;;;;;;12.70;5.93;;;;;;;10.62;98.80;101742.66;2098950;28;20031;-65
2021/09/13 01:03:11;;;;;;;10.93;6.53;;;;;;;10.61;99.14;101740.97;2099115;28;20453;-65
2021/09/13 01:04:11;;;;;;;8.63;6.40;;;;;;;10.61;99.13;101746.19;2089893;28;20060;-65
2021/09/13 01:05:11;;;;;;;9.33;5.70;;;;;;;10.61;99.28;101735.75;2090060;28;20088;-65
2021/09/13 01:06:12;;;;;;;9.47;6.17;;;;;;;10.61;98.85;101735.75;2089735;28;20469;-65
2021/09/13 01:07:12;;;;;;;10.97;6.57;;;;;;;10.59;99.07;101740.13;2089995;28;20033;-66
2021/09/13 01:08:13;;;;;;;7.33;5.33;;;;;;;10.60;99.39;101739.25;2098870;28;20066;-66
2021/09/13 01:09:13;;;;;;;9.10;6.85;;;;;;;10.56;98.96;101738.47;2098647;28;20099;-65
2021/09/13 01:10:13;;;;;;;8.87;7.90;;;;;;;10.55;99.01;101737.59;2098707;28;20078;-65
2021/09/13 01:11:14;;;;;;;9.73;7.13;;;;;;;10.54;98.87;101741.13;2098648;28;20682;-66
2021/09/13 01:12:15;;;;;;;9.43;6.22;;;;;;;10.54;98.83;101741.13;2098687;28;20371;-66
2021/09/13 01:13:15;;;;;;;9.38;6.75;;;;;;;10.51;98.99;101735.97;2089741;28;20017;-66
2021/09/13 01:14:16;;;;;;;9.07;6.17;;;;;;;10.50;98.94;101739.50;2089815;28;20104;-65
2021/09/13 01:15:16;;;;;;;7.80;5.80;;;;;;;10.49;98.89;101748.22;2098632;28;20032;-65
2021/09/13 01:16:16;;;;;;;8.63;6.60;;;;;;;10.47;99.09;101736.97;2098650;28;20097;-65
2021/09/13 01:17:16;;;;;;;12.10;9.77;;;;;;;10.48;99.45;101741.31;2098833;28;20110;-65
2021/09/13 01:18:17;;;;;;;12.15;7.25;;;;;;;10.48;99.42;101738.69;2098751;28;20447;-66
2021/09/13 01:19:17;;;;;;;10.70;7.00;;;;;;;10.46;98.69;101737.88;2098385;28;20031;-66
2021/09/13 01:20:17;;;;;;;18.27;8.93;;;;;;;10.45;98.65;101730.94;2098641;28;20025;-64
2021/09/13 01:21:18;;;;;;;11.50;8.13;;;;;;;10.48;99.35;101735.22;2098590;28;20032;-65
2021/09/13 01:22:19;;;;;;;11.87;8.83;;;;;;;10.46;99.20;101737.88;2098716;28;20394;-65
2021/09/13 01:23:25;;;;;;;9.65;7.30;;;;;;;10.42;99.27;101734.47;2098513;28;20384;-65
2021/09/13 01:24:25;;;;;;;12.45;7.28;;;;;;;10.42;98.91;101731.00;2098549;28;20020;-66
2021/09/13 01:25:25;;;;;;;10.63;6.40;;;;;;;10.41;99.68;101734.50;2098514;28;20462;-65
2021/09/13 01:26:26;;;;;;;11.93;7.20;;;;;;;10.42;99.07;101739.69;2098543;28;20024;-65
2021/09/13 01:27:27;;;;;;;12.57;7.43;;;;;;;10.42;99.49;101738.81;2098521;28;20020;-65
2021/09/13 01:28:27;;;;;;;;;;;;;;;10.41;99.15;101743.19;2099125;28;20025;-65
2021/09/13 01:29:28;;;;;;;11.50;6.68;;;;;;;10.42;99.44;101738.81;2098484;28;20297;-65
2021/09/13 01:30:30;;;;;;;13.80;8.40;;;;;;;10.43;99.69;101741.41;2098460;28;20029;-64
2021/09/13 01:31:30;;;;;;;14.05;8.98;;;;;;;10.46;99.48;101742.22;2089459;28;20016;-64
2021/09/13 01:32:31;;;;;;;15.55;8.65;;;;;;;10.46;99.39;101737.00;2089609;28;20551;-64
2021/09/13 01:33:31;;;;;;;12.83;9.53;;;;;;;10.43;99.07;101736.19;2098537;28;20361;-64
2021/09/13 01:34:31;;;;;;;17.43;8.43;;;;;;;10.45;99.27;101744.00;2089361;28;20060;-65
2021/09/13 01:35:32;;;;;;;12.97;8.60;;;;;;;10.46;99.67;101743.09;2089704;28;20025;-64
2021/09/13 01:36:32;;;;;;;14.33;8.30;;;;;;;10.45;99.50;101744.00;2098511;28;20027;-65
2021/09/13 01:37:32;;;;;;;11.60;7.80;;;;;;;10.45;99.43;101738.78;2098363;28;20484;-65
2021/09/13 01:38:33;;;;;;;14.53;8.43;;;;;;;10.44;99.16;101739.66;2098556;28;20052;-65
2021/09/13 01:39:33;;;;;;;13.13;9.10;;;;;;;10.44;99.37;101739.66;2098311;28;20016;-65
2021/09/13 01:40:33;;;;;;;15.80;9.73;;;;;;;10.45;99.54;101749.22;2098538;28;20023;-65
2021/09/13 01:41:33;;;;;;;17.23;9.77;;;;;;;10.42;99.67;101738.81;2089422;28;20021;-65
2021/09/13 01:42:34;;;;;;;14.17;10.80;;;;;;;10.42;99.58;101744.91;2089680;28;20112;-66
2021/09/13 01:43:34;;;;;;;14.40;9.90;;;;;;;10.45;99.62;101749.22;2098344;28;20027;-65
2021/09/13 01:44:34;;;;;;;14.90;10.80;;;;;;;10.48;100.00;101750.88;2098367;28;20027;-65
2021/09/13 01:45:34;;;;;;;15.80;9.43;;;;;;;10.50;99.98;101747.31;2098380;28;20020;-65
2021/09/13 01:46:35;;;;;;;17.93;8.77;;;;;;;10.53;99.92;101749.84;2098384;28;20469;-66
2021/09/13 01:47:35;;;;;;;13.80;8.97;;;;;;;10.54;99.56;101748.94;2098247;28;20036;-66
2021/09/13 01:48:35;;;;;;;14.80;9.07;;;;;;;10.61;100.00;101747.03;2098332;28;20020;-66
2021/09/13 01:49:36;;;;;;;14.87;9.03;;;;;;;10.64;100.00;101741.72;2098270;28;20016;-65
2021/09/13 01:50:36;;;;;;;20.60;11.80;;;;;;;10.63;100.00;101746.97;2098539;28;20025;-65
2021/09/13 01:51:37;;;;;;;16.07;10.40;;;;;;;10.58;100.00;101746.25;2089419;28;20020;-66
2021/09/13 01:52:38;;;;;;;15.35;10.02;;;;;;;10.59;99.88;101743.63;2089507;28;20024;-64
2021/09/13 01:53:38;;;;;;;14.53;8.60;;;;;;;10.61;99.85;101746.19;2098419;28;20055;-65
2021/09/13 01:54:38;;;;;;;15.33;9.80;;;;;;;10.61;99.90;101746.19;2098432;28;20382;-65
2021/09/13 01:55:39;;;;;;;15.07;9.63;;;;;;;10.61;99.96;101746.19;2098308;28;20518;-65
2021/09/13 01:56:39;;;;;;;20.20;9.20;;;;;;;10.58;99.69;101744.53;2097651;28;20090;-64
2021/09/13 01:57:39;;;;;;;13.67;8.93;;;;;;;10.55;99.75;101747.22;2098361;28;20466;-64
2021/09/13 01:58:39;;;;;;;13.43;7.87;;;;;;;10.52;99.50;101745.53;2098349;28;20424;-64
2021/09/13 01:59:40;;;;;;;11.70;7.70;;;;;;;10.52;100.00;101748.16;2098192;28;20028;-64
2021/09/13 02:00:40;;;;;;;11.53;8.10;;;;;;;10.51;99.97;101741.19;2098234;28;20026;-65
2021/09/13 02:01:40;;;;;;;13.50;9.47;;;;;;;10.47;99.63;101747.41;2098275;28;20047;-65
2021/09/13 02:02:41;;;;;;;11.53;7.83;;;;;;;10.43;99.48;101746.63;2098380;28;20053;-66
2021/09/13 02:03:41;;;;;;;12.83;8.73;;;;;;;10.41;100.00;101747.56;2089304;28;20068;-65
2021/09/13 02:04:41;;;;;;;10.93;7.73;;;;;;;10.39;99.58;101746.72;2089441;28;20395;-64
2021/09/13 02:05:42;;;;;;;14.03;8.53;;;;;;;10.39;99.89;101746.72;2098291;28;20437;-65
2021/09/13 02:06:42;;;;;;;15.03;8.73;;;;;;;10.40;100.00;101744.09;2098405;28;20024;-64
2021/09/13 02:07:42;;;;;;;15.07;8.73;;;;;;;10.38;99.79;101738.06;2098366;28;20046;-64
2021/09/13 02:08:43;;;;;;;11.40;6.97;;;;;;;10.39;99.80;101741.50;2089512;28;20021;-64
2021/09/13 02:09:44;;;;;;;12.93;10.00;;;;;;;10.38;100.00;101745.91;2089331;28;20009;-65
2021/09/13 02:10:44;;;;;;;16.77;8.02;;;;;;;10.36;100.00;101742.47;2098428;28;20074;-65
2021/09/13 02:11:45;;;;;;;11.43;7.50;;;;;;;10.36;99.35;101741.59;2098405;28;20530;-66
2021/09/13 02:12:45;;;;;;;11.70;7.03;;;;;;;10.34;99.54;101738.19;2098392;28;20036;-67
2021/09/13 02:13:45;;;;;;;15.00;10.13;;;;;;;10.35;99.43;101745.09;2098176;28;20056;-65
2021/09/13 02:14:46;;;;;;;11.43;7.37;;;;;;;10.34;99.67;101744.25;2098331;28;20078;-65
2021/09/13 02:15:46;;;;;;;16.83;8.70;;;;;;;10.36;100.00;101741.59;2098337;28;20031;-64
2021/09/13 02:16:46;;;;;;;13.27;9.50;;;;;;;10.36;99.60;101741.59;2098226;28;20036;-65
2021/09/13 02:17:47;;;;;;;12.13;7.93;;;;;;;10.33;99.55;101741.69;2089383;28;20067;-65
2021/09/13 02:18:47;;;;;;;11.37;7.73;;;;;;;10.29;99.46;101747.00;2089428;28;20139;-66
2021/09/13 02:19:48;;;;;;;10.60;8.07;;;;;;;10.26;99.66;101741.84;2097869;28;20071;-65
2021/09/13 02:20:48;;;;;;;14.15;6.95;;;;;;;10.23;99.49;101738.47;2098233;28;20482;-65
2021/09/13 02:21:49;;;;;;;12.63;8.87;;;;;;;10.22;99.44;101744.56;2098111;28;20032;-65
2021/09/13 02:22:49;;;;;;;9.77;6.50;;;;;;;10.17;99.22;101731.66;2098234;28;20039;-64
2021/09/13 02:23:49;;;;;;;11.97;8.47;;;;;;;10.16;99.58;101730.81;2098231;28;20028;-64
2021/09/13 02:24:49;;;;;;;15.20;8.73;;;;;;;10.15;99.34;101730.84;2098278;28;20055;-65
2021/09/13 02:25:50;;;;;;;12.40;8.80;;;;;;;10.14;99.49;101726.53;2098152;28;20039;-64
2021/09/13 02:26:50;;;;;;;14.13;7.60;;;;;;;10.11;99.26;101726.59;2089388;28;20032;-64
2021/09/13 02:27:50;;;;;;;12.47;7.93;;;;;;;10.09;99.21;101724.03;2089240;28;20127;-65
2021/09/13 02:28:51;;;;;;;12.83;7.77;;;;;;;10.07;99.15;101724.97;2089261;28;20100;-65
2021/09/13 02:29:51;;;;;;;16.20;7.90;;;;;;;10.05;99.75;101728.47;2098212;28;20025;-65
2021/09/13 02:30:51;;;;;;;17.77;8.73;;;;;;;10.07;99.39;101724.97;2098274;28;20567;-65
2021/09/13 02:31:51;;;;;;;14.57;8.43;;;;;;;10.03;99.62;101725.03;2098259;28;20450;-64
2021/09/13 02:32:51;;;;;;;13.00;7.87;;;;;;;10.01;99.38;101724.25;2098144;28;20059;-64
2021/09/13 02:33:52;;;;;;;13.60;7.17;;;;;;;10.01;99.85;101726.84;2098259;28;20060;-65
2021/09/13 02:34:52;;;;;;;15.73;9.10;;;;;;;10.03;99.49;101729.44;2098108;28;20042;-64
2021/09/13 02:35:52;;;;;;;14.10;7.60;;;;;;;9.99;99.53;101728.63;2098062;28;20375;-65
2021/09/13 02:36:52;;;;;;;17.50;10.30;;;;;;;10.00;99.90;101730.38;2089148;28;20041;-64
2021/09/13 02:37:53;;;;;;;12.60;8.50;;;;;;;9.97;99.29;101726.97;2089123;28;20032;-65
2021/09/13 02:38:53;;;;;;;14.27;9.07;;;;;;;9.95;99.25;101726.16;2098088;28;20032;-65
2021/09/13 02:39:53;;;;;;;13.10;7.20;;;;;;;9.94;99.21;101727.03;2098142;28;20481;-64
2021/09/13 02:40:54;;;;;;;11.75;7.75;;;;;;;9.93;99.49;101723.59;2098127;28;20056;-65
2021/09/13 02:41:54;;;;;;;12.48;7.28;;;;;;;9.96;99.70;101722.66;2098142;28;20027;-65
2021/09/13 02:42:54;;;;;;;12.77;7.13;;;;;;;9.94;99.95;101725.28;2098283;28;20390;-65
2021/09/13 02:43:55;;;;;;;15.03;7.60;;;;;;;9.93;100.00;101723.59;2098143;28;20029;-64
2021/09/13 02:44:55;;;;;;;12.80;8.63;;;;;;;9.93;99.56;101726.19;2098076;28;20027;-64
2021/09/13 02:45:55;;;;;;;14.30;7.87;;;;;;;9.94;99.59;101724.44;2098138;28;20392;-64
2021/09/13 02:46:56;;;;;;;12.07;8.23;;;;;;;9.89;99.69;101727.16;2098196;28;20799;-65
2021/09/13 02:47:56;;;;;;;12.73;8.52;;;;;;;9.88;99.46;101725.44;2098025;28;20451;-67
2021/09/13 02:48:57;;;;;;;14.17;8.57;;;;;;;9.85;99.64;101726.38;2098044;28;20028;-64
2021/09/13 02:49:57;;;;;;;11.53;8.10;;;;;;;9.85;99.71;101725.53;2098074;28;20052;-64
2021/09/13 02:50:57;;;;;;;12.50;8.40;;;;;;;9.83;99.52;101722.97;2098040;28;20099;-64
2021/09/13 02:51:58;;;;;;;11.43;7.67;;;;;;;9.82;99.63;101733.44;2098069;28;20023;-65
2021/09/13 02:52:58;;;;;;;12.85;7.40;;;;;;;9.79;99.81;101727.38;2098013;28;20052;-64
2021/09/13 02:53:58;;;;;;;12.48;7.90;;;;;;;9.81;99.82;101731.72;2098153;28;20016;-64
2021/09/13 02:54:59;;;;;;;11.03;7.37;;;;;;;9.81;99.61;101721.31;2097995;28;20362;-65
2021/09/13 02:55:59;;;;;;;11.67;8.07;;;;;;;9.83;100.00;101722.09;2098131;28;20492;-65
2021/09/13 02:57:00;;;;;;;13.98;7.43;;;;;;;9.81;99.97;101729.13;2089311;28;20021;-64
2021/09/13 02:58:00;;;;;;;11.40;7.70;;;;;;;9.77;99.80;101729.19;2089215;28;20470;-64
2021/09/13 02:59:00;;;;;;;14.37;7.40;;;;;;;9.74;99.74;101721.44;2097915;28;20024;-64
2021/09/13 03:00:00;;;;;;;13.83;9.00;;;;;;;9.73;99.90;101722.34;2088869;28;20025;-64
2021/09/13 03:01:01;;;;;;;14.57;9.50;;;;;;;9.74;99.64;101729.25;2089072;28;20021;-63
2021/09/13 03:02:01;;;;;;;17.93;9.57;;;;;;;9.74;100.00;101716.22;2098017;28;20111;-63
2021/09/13 03:03:01;;;;;;;13.80;8.57;;;;;;;9.73;99.65;101722.34;2097966;28;20102;-64
2021/09/13 03:04:02;;;;;;;12.40;8.87;;;;;;;9.71;99.77;101729.34;2097999;28;20078;-64
2021/09/13 03:05:02;;;;;;;14.80;9.27;;;;;;;9.67;99.51;101722.47;2098071;28;20059;-64
2021/09/13 03:06:02;;;;;;;11.07;7.50;;;;;;;9.68;99.37;101720.75;2088916;28;20021;-64
2021/09/13 03:07:03;;;;;;;14.10;8.23;;;;;;;9.66;99.54;101718.16;2080817;28;20482;-65
2021/09/13 03:08:03;;;;;;;11.97;7.83;;;;;;;9.65;99.98;101713.88;2090284;28;20021;-66
2021/09/13 03:09:04;;;;;;;14.10;7.73;;;;;;;9.65;100.00;101719.06;2099714;28;20278;-64
2021/09/13 03:10:04;;;;;;;13.37;8.00;;;;;;;9.63;99.53;101716.50;2099892;28;20290;-64
2021/09/13 03:11:05;;;;;;;15.70;8.40;;;;;;;9.63;99.73;101711.28;2090696;28;20589;-63
2021/09/13 03:12:06;;;;;;;17.77;8.80;;;;;;;9.64;99.79;101714.72;2090718;28;20031;-65
2021/09/13 03:13:06;;;;;;;12.02;7.72;;;;;;;9.64;99.64;101718.22;2099622;28;20103;-64
2021/09/13 03:14:07;;;;;;;12.83;7.50;;;;;;;9.63;100.00;101721.72;2090706;28;20541;-64
2021/09/13 03:15:09;;;;;;;13.97;8.87;;;;;;;9.63;100.00;101713.03;2090617;28;20036;-64
2021/09/13 03:16:09;;;;;;;12.18;8.63;;;;;;;9.63;99.93;101715.63;2099594;28;20100;-64
2021/09/13 03:17:09;;;;;;;13.23;8.03;;;;;;;9.62;99.96;101716.53;2090851;28;20017;-64
2021/09/13 03:18:10;;;;;;;14.40;9.27;;;;;;;9.61;99.78;101712.22;2090659;28;20036;-64
2021/09/13 03:19:10;;;;;;;14.63;8.30;;;;;;;9.63;99.84;101719.09;2099396;28;20074;-65
2021/09/13 03:20:11;;;;;;;13.17;8.60;;;;;;;9.63;100.00;101710.41;2099354;28;20048;-64
2021/09/13 03:21:11;;;;;;;16.70;10.30;;;;;;;9.64;99.72;101712.13;2090528;28;20079;-64
2021/09/13 03:22:11;;;;;;;17.17;8.53;;;;;;;9.63;99.93;101713.03;2090632;28;20188;-63
2021/09/13 03:23:11;;;;;;;17.07;10.20;;;;;;;9.65;99.99;101713.88;2099496;28;20039;-63
2021/09/13 03:24:12;;;;;;;14.03;9.87;;;;;;;9.61;100.00;101718.28;2099396;28;20146;-64
2021/09/13 03:25:12;;;;;;;15.20;9.80;;;;;;;9.59;99.83;101708.78;2090502;28;20029;-64
2021/09/13 03:26:13;;;;;;;14.37;8.63;;;;;;;9.57;99.81;101707.94;2082241;28;20030;-64
2021/09/13 03:27:13;;;;;;;14.57;9.00;;;;;;;9.55;99.76;101715.84;2090606;28;20025;-63
2021/09/13 03:28:13;;;;;;;12.90;7.70;;;;;;;9.56;100.00;101714.06;2099428;28;20107;-63
2021/09/13 03:29:13;;;;;;;17.20;9.90;;;;;;;9.51;99.90;101717.63;2099380;28;20029;-64
2021/09/13 03:30:14;;;;;;;19.47;9.57;;;;;;;9.51;99.49;101716.78;2099464;28;20024;-64
2021/09/13 03:31:14;;;;;;;15.60;9.67;;;;;;;9.47;99.96;101713.41;2099480;28;20036;-64
2021/09/13 03:32:14;;;;;;;17.50;8.80;;;;;;;9.49;99.96;101714.22;2099375;28;20316;-64
2021/09/13 03:33:15;;;;;;;11.27;7.10;;;;;;;9.51;99.73;101711.56;2099583;28;20039;-65
2021/09/13 03:34:15;;;;;;;14.07;9.57;;;;;;;9.50;99.65;101710.72;2099258;28;20129;-64
2021/09/13 03:35:15;;;;;;;13.87;8.90;;;;;;;9.55;99.80;101717.56;2099347;28;20029;-64
2021/09/13 03:36:15;;;;;;;12.93;9.00;;;;;;;9.52;100.00;101714.13;2099321;28;20039;-64
2021/09/13 03:37:16;;;;;;;21.70;9.00;;;;;;;9.52;100.00;101716.75;2099477;28;20024;-64
2021/09/13 03:38:16;;;;;;;15.00;9.53;;;;;;;9.53;100.00;101721.09;2099316;28;20032;-64
2021/09/13 03:39:16;;;;;;;16.83;7.93;;;;;;;9.52;99.97;101724.56;2090513;28;20025;-64
2021/09/13 03:40:17;;;;;;;15.10;8.83;;;;;;;9.51;100.00;101720.25;2090597;28;20028;-64
2021/09/13 03:41:17;;;;;;;19.03;8.60;;;;;;;9.51;99.72;101721.97;2090420;28;20062;-64
2021/09/13 03:42:17;;;;;;;15.10;8.40;;;;;;;9.49;99.84;101722.06;2090661;28;20040;-64
2021/09/13 03:43:18;;;;;;;15.60;10.00;;;;;;;9.52;100.00;101724.56;2090416;28;20031;-63
2021/09/13 03:44:18;;;;;;;14.03;9.77;;;;;;;9.51;100.00;101727.19;2090312;28;20476;-64
2021/09/13 03:45:18;;;;;;;15.07;10.60;;;;;;;9.50;99.83;101726.34;2090318;28;20025;-64
2021/09/13 03:46:18;;;;;;;16.87;10.40;;;;;;;9.51;100.00;101729.78;2090586;28;20051;-63
2021/09/13 03:47:19;;;;;;;16.60;8.63;;;;;;;9.47;100.00;101726.41;2099203;28;20028;-64
2021/09/13 03:48:20;;;;;;;13.23;8.93;;;;;;;9.45;99.79;101727.34;2099380;28;20026;-63
2021/09/13 03:49:21;;;;;;;15.40;8.23;;;;;;;9.44;99.90;101721.28;2099246;28;20492;-64
2021/09/13 03:50:21;;;;;;;19.17;9.30;;;;;;;9.43;99.82;101722.19;2090556;28;20027;-65
2021/09/13 03:51:22;;;;;;;14.23;8.13;;;;;;;9.42;99.62;101727.41;2082161;28;20090;-64
2021/09/13 03:52:22;;;;;;;12.87;7.60;;;;;;;9.39;99.82;101721.41;2090422;28;20028;-65
2021/09/13 03:53:22;;;;;;;19.47;8.33;;;;;;;9.39;100.00;101723.16;2090343;28;20115;-65
2021/09/13 03:54:23;;;;;;;15.43;9.43;;;;;;;9.38;100.00;101721.44;2090463;28;20057;-67
2021/09/13 03:55:23;;;;;;;17.80;9.63;;;;;;;9.39;99.84;101723.16;2099392;28;20048;-66
2021/09/13 03:56:23;;;;;;;15.23;8.43;;;;;;;9.38;100.00;101721.44;2099504;28;20026;-65
2021/09/13 03:57:23;;;;;;;14.00;8.60;;;;;;;9.36;99.87;101712.78;2099365;28;20028;-66
2021/09/13 03:58:24;;;;;;;16.53;8.90;;;;;;;9.37;99.76;101719.69;2099399;28;20043;-64
2021/09/13 03:59:24;;;;;;;15.03;8.53;;;;;;;9.36;99.85;101708.44;2099320;28;20021;-63
2021/09/13 04:00:24;;;;;;;14.10;8.90;;;;;;;9.36;100.00;101707.59;2099289;28;20032;-63
2021/09/13 04:01:25;;;;;;;17.83;9.43;;;;;;;9.36;100.00;101710.19;2099248;28;20024;-62
2021/09/13 04:02:25;;;;;;;18.87;10.90;;;;;;;9.37;100.00;101704.94;2099339;28;20104;-63
2021/09/13 04:03:32;;;;;;;17.97;9.43;;;;;;;9.42;100.00;101712.66;2090269;28;20075;-63
2021/09/13 04:04:34;;;;;;;17.15;10.00;;;;;;;9.39;100.00;101707.50;2082882;28;20032;-63
2021/09/13 04:05:34;;;;;;;21.20;9.93;;;;;;;9.38;99.83;101708.41;2090572;28;20509;-63
2021/09/13 04:07:50;;;;;;;22.50;10.87;;;;;;;9.35;99.80;101711.09;2099544;28;20040;-64
2021/09/13 04:09:36;;;;;;;17.35;8.05;;;;;;;9.34;100.00;101709.38;2099371;28;20026;-63
2021/09/13 04:11:54;;;;;;;;;;;;;;;9.37;100.00;101704.94;2099819;28;20518;-62
2021/09/13 04:12:54;;;;;;;18.95;10.80;;;;;;;9.39;100.00;101707.50;2099182;28;19947;-63
2021/09/13 04:13:55;;;;;;;22.53;13.57;;;;;;;9.39;100.00;101707.50;2099167;28;20485;-63
2021/09/13 04:14:55;;;;;;;24.13;13.27;;;;;;;9.40;100.00;101704.00;2099329;28;20386;-63
2021/09/13 04:15:55;;;;;;;21.83;13.33;;;;;;;9.43;100.00;101713.50;2099247;28;20021;-63
2021/09/13 04:16:57;;;;;;;20.63;10.20;;;;;;;9.36;100.00;101708.44;2099041;28;20017;-64
2021/09/13 04:17:57;;;;;;;19.52;11.70;;;;;;;9.36;100.00;101715.41;2099153;28;20017;-63
2021/09/13 04:18:57;;;;;;;21.23;12.73;;;;;;;9.34;100.00;101706.78;2089992;28;20063;-63
2021/09/13 04:19:58;;;;;;;21.00;12.70;;;;;;;9.34;99.57;101709.38;2089423;28;20033;-63
2021/09/13 04:20:58;;;;;;;20.03;12.67;;;;;;;9.34;100.00;101704.16;2099222;28;20393;-63
2021/09/13 04:21:59;;;;;;;16.15;10.00;;;;;;;9.31;99.94;101709.44;2090163;28;20553;-64
2021/09/13 04:22:59;;;;;;;17.63;10.20;;;;;;;9.28;99.72;101706.00;2090268;28;20413;-63
2021/09/13 04:23:59;;;;;;;17.83;9.50;;;;;;;9.30;100.00;101707.75;2099041;28;20025;-64
2021/09/13 04:25:00;;;;;;;22.90;10.97;;;;;;;9.27;100.00;101704.31;2090108;28;20028;-63
2021/09/13 04:26:00;;;;;;;17.58;9.88;;;;;;;9.28;100.00;101705.16;2090207;28;20017;-63
2021/09/13 04:27:01;;;;;;;21.33;12.60;;;;;;;9.27;99.79;101719.06;2099012;28;20462;-62
2021/09/13 04:28:01;;;;;;;20.53;10.53;;;;;;;9.25;99.69;101708.72;2098991;28;20036;-64
2021/09/13 04:29:02;;;;;;;22.63;10.90;;;;;;;9.24;99.64;101706.97;2099017;28;20047;-63
2021/09/13 04:30:02;;;;;;;17.33;10.60;;;;;;;9.24;100.00;101706.13;2099018;28;20025;-63
2021/09/13 04:31:03;;;;;;;18.50;12.63;;;;;;;9.26;99.82;101707.81;2099089;28;20469;-63
2021/09/13 04:32:03;;;;;;;20.97;11.13;;;;;;;9.25;99.99;101703.50;2098960;28;20082;-65
2021/09/13 04:33:03;;;;;;;20.10;9.77;;;;;;;9.23;100.00;101702.66;2098919;28;20024;-63
2021/09/13 04:34:04;;;;;;;16.20;9.33;;;;;;;9.24;100.00;101701.75;2099065;28;20030;-63
2021/09/13 04:35:04;;;;;;;19.23;9.70;;;;;;;9.23;100.00;101707.00;2099119;28;20032;-63
2021/09/13 04:36:05;;;;;;;17.88;10.68;;;;;;;9.21;100.00;101709.63;2098975;28;20275;-64
2021/09/13 04:37:05;;;;;;;23.77;10.30;;;;;;;9.23;100.00;101707.00;2099196;28;20480;-64
2021/09/13 04:38:05;;;;;;;20.10;9.93;;;;;;;9.26;99.78;101706.94;2090182;28;20025;-64
2021/09/13 04:39:06;;;;;;;22.93;11.10;;;;;;;9.26;99.95;101706.94;2090079;28;20457;-64
2021/09/13 04:40:07;;;;;;;16.83;11.43;;;;;;;9.26;100.00;101710.41;2098920;28;20032;-65
2021/09/13 04:41:07;;;;;;;19.33;11.43;;;;;;;9.25;99.98;101706.09;2098798;28;20278;-63
2021/09/13 04:42:08;;;;;;;19.33;11.83;;;;;;;9.23;100.00;101713.06;2089988;28;20089;-64